createdAt,value
2022-08-26T00:01:44.034Z,20.34
2022-08-26T00:05:47.989Z,20.34
2022-08-26T00:09:50.049Z,20.33
2022-08-26T00:13:51.835Z,20.35
2022-08-26T00:17:54.953Z,20.31
2022-08-26T00:21:56.636Z,20.31
2022-08-26T00:25:58.660Z,20.29
2022-08-26T00:30:01.678Z,20.26
2022-08-26T00:34:03.337Z,20.24
2022-08-26T00:38:05.682Z,20.22
2022-08-26T00:42:09.415Z,20.20
2022-08-26T00:46:33.540Z,20.18
2022-08-26T00:50:42.714Z,20.19
2022-08-26T00:54:58.549Z,20.18
2022-08-26T00:59:05.326Z,20.18
2022-08-26T01:03:12.610Z,20.16
2022-08-26T01:07:15.668Z,20.15
2022-08-26T01:11:19.521Z,20.13
2022-08-26T01:15:28.034Z,20.08
2022-08-26T01:19:42.345Z,20.07
2022-08-26T01:23:48.796Z,20.08
2022-08-26T01:27:52.396Z,20.06
2022-08-26T01:31:56.686Z,20.05
2022-08-26T01:35:58.588Z,20.02
2022-08-26T01:40:00.556Z,20.01
2022-08-26T01:44:05.083Z,19.97
2022-08-26T01:48:11.540Z,19.93
2022-08-26T01:52:18.876Z,19.89
2022-08-26T01:56:24.595Z,19.86
2022-08-26T02:00:35.900Z,19.83
2022-08-26T02:04:43.887Z,19.86
2022-08-26T02:08:49.142Z,19.86
2022-08-26T02:12:51.926Z,19.87
2022-08-26T02:16:54.418Z,19.85
2022-08-26T02:20:57.118Z,19.87
2022-08-26T02:25:08.139Z,19.84
2022-08-26T02:29:20.410Z,19.79
2022-08-26T02:33:22.978Z,19.78
2022-08-26T02:37:29.942Z,19.77
2022-08-26T02:41:32.133Z,19.75
2022-08-26T02:45:35.140Z,19.75
2022-08-26T02:49:37.575Z,19.75
2022-08-26T02:53:39.290Z,19.75
2022-08-26T02:57:40.890Z,19.75
2022-08-26T03:01:45.213Z,19.73
2022-08-26T03:05:47.761Z,19.75
2022-08-26T03:09:49.660Z,19.75
2022-08-26T03:13:53.759Z,19.75
2022-08-26T03:17:55.927Z,19.75
2022-08-26T03:21:59.395Z,19.72
2022-08-26T03:26:01.414Z,19.70
2022-08-26T03:30:23.294Z,19.68
2022-08-26T03:34:25.075Z,19.66
2022-08-26T03:38:27.278Z,19.66
2022-08-26T03:42:29.289Z,19.66
2022-08-26T03:46:35.396Z,19.65
2022-08-26T03:50:37.697Z,19.65
2022-08-26T03:54:40.600Z,19.64
2022-08-26T03:58:45.936Z,19.66
2022-08-26T04:02:51.223Z,19.68
2022-08-26T04:06:59.380Z,19.69
2022-08-26T04:11:01.276Z,19.68
2022-08-26T04:15:06.578Z,19.67
2022-08-26T04:19:09.718Z,19.66
2022-08-26T04:23:11.563Z,19.67
2022-08-26T04:27:13.217Z,19.67
2022-08-26T04:31:16.723Z,19.66
2022-08-26T04:35:20.924Z,19.66
2022-08-26T04:39:28.255Z,19.64
2022-08-26T04:43:30.602Z,19.64
2022-08-26T04:47:32.567Z,19.64
2022-08-26T04:51:35.952Z,19.65
2022-08-26T04:55:42.730Z,19.65
2022-08-26T04:59:46.778Z,19.64
2022-08-26T05:03:51.747Z,19.63
2022-08-26T05:07:53.578Z,19.61
2022-08-26T05:11:55.219Z,19.61
2022-08-26T05:16:00.564Z,19.58
2022-08-26T05:20:04.258Z,19.57
2022-08-26T05:24:06.145Z,19.57
2022-08-26T05:28:09.664Z,19.55
2022-08-26T05:32:11.379Z,19.57
2022-08-26T05:36:16.299Z,19.59
2022-08-26T05:40:18.427Z,19.60
2022-08-26T05:44:22.426Z,19.61
2022-08-26T05:48:24.507Z,19.60
2022-08-26T05:52:26.369Z,19.56
2022-08-26T05:56:28.897Z,19.55
2022-08-26T06:00:30.457Z,19.53
2022-08-26T06:04:32.138Z,19.52
2022-08-26T06:08:34.637Z,19.55
2022-08-26T06:12:37.441Z,19.61
2022-08-26T06:16:41.490Z,19.67
2022-08-26T06:20:53.751Z,19.70
2022-08-26T06:25:18.552Z,19.73
2022-08-26T06:29:24.593Z,19.76
2022-08-26T06:33:28.775Z,19.76
2022-08-26T06:37:30.343Z,19.74
2022-08-26T06:41:33.568Z,19.77
2022-08-26T06:45:35.207Z,19.76
2022-08-26T06:49:37.208Z,19.78
2022-08-26T06:53:41.230Z,19.79
2022-08-26T06:57:42.890Z,19.79
2022-08-26T07:01:45.114Z,19.80
2022-08-26T07:05:47.092Z,19.82
2022-08-26T07:09:52.672Z,19.85
2022-08-26T07:13:54.442Z,19.85
2022-08-26T07:17:56.054Z,19.85
2022-08-26T07:22:02.161Z,19.80
2022-08-26T07:26:15.231Z,19.78
2022-08-26T07:30:16.979Z,19.81
2022-08-26T07:34:18.754Z,19.83
2022-08-26T07:38:20.458Z,19.78
2022-08-26T07:42:22.532Z,19.76
2022-08-26T07:46:27.094Z,19.81
2022-08-26T07:50:49.309Z,19.83
2022-08-26T07:54:50.886Z,19.81
2022-08-26T07:58:53.304Z,19.79
2022-08-26T08:02:54.932Z,19.79
2022-08-26T08:06:58.160Z,19.77
2022-08-26T08:11:01.022Z,19.77
2022-08-26T08:15:02.678Z,19.78
2022-08-26T08:19:05.386Z,19.75
2022-08-26T08:23:07.092Z,19.71
2022-08-26T08:27:08.955Z,19.70
2022-08-26T08:31:56.432Z,19.68
2022-08-26T08:35:59.323Z,19.67
2022-08-26T08:40:01.196Z,19.69
2022-08-26T08:44:08.690Z,19.68
2022-08-26T08:48:33.324Z,19.69
2022-08-26T08:52:36.408Z,19.79
2022-08-26T08:56:44.730Z,19.88
2022-08-26T09:01:01.666Z,20.02
2022-08-26T09:05:25.543Z,20.14
2022-08-26T09:09:44.403Z,20.26
2022-08-26T09:13:55.520Z,20.36
2022-08-26T09:18:39.361Z,20.50
2022-08-26T09:22:44.276Z,20.62
2022-08-26T09:26:48.097Z,20.62
2022-08-26T09:31:23.594Z,20.62
2022-08-26T09:35:27.380Z,20.56
2022-08-26T09:39:34.661Z,20.53
2022-08-26T09:43:39.529Z,20.41
2022-08-26T09:47:54.395Z,20.34
2022-08-26T09:52:22.001Z,20.30
2022-08-26T09:56:23.543Z,20.26
2022-08-26T10:00:38.406Z,20.17
2022-08-26T10:04:40.452Z,20.09
2022-08-26T10:08:48.919Z,20.10
2022-08-26T10:13:07.833Z,20.05
2022-08-26T10:17:09.609Z,20.03
2022-08-26T10:21:21.072Z,20.02
2022-08-26T10:25:29.034Z,20.06
2022-08-26T10:29:39.555Z,20.06
2022-08-26T10:33:41.619Z,20.13
2022-08-26T10:37:49.959Z,20.23
2022-08-26T10:41:57.549Z,20.33
2022-08-26T10:46:03.566Z,20.34
2022-08-26T10:50:06.669Z,20.38
2022-08-26T10:54:21.610Z,20.40
2022-08-26T10:58:31.937Z,20.36
2022-08-26T11:02:47.104Z,20.39
2022-08-26T11:06:50.414Z,20.45
2022-08-26T11:10:51.989Z,20.50
2022-08-26T11:14:58.808Z,20.50
2022-08-26T11:19:00.996Z,20.55
2022-08-26T11:23:12.475Z,20.64
2022-08-26T11:27:23.210Z,20.78
2022-08-26T11:31:25.928Z,20.84
2022-08-26T11:35:34.464Z,20.88
2022-08-26T11:39:55.131Z,21.04
2022-08-26T11:43:59.682Z,21.13
2022-08-26T11:48:20.950Z,21.08
2022-08-26T11:52:22.760Z,21.00
2022-08-26T11:56:33.215Z,20.92
2022-08-26T12:00:52.816Z,20.92
2022-08-26T12:04:56.167Z,20.99
2022-08-26T12:09:02.365Z,20.97
2022-08-26T12:13:06.255Z,20.98
2022-08-26T12:17:14.714Z,21.10
2022-08-26T12:21:24.402Z,21.12
2022-08-26T20:28:10.929Z,17.83
2022-08-26T20:32:12.816Z,17.82
2022-08-26T20:36:15.376Z,17.82
2022-08-26T20:40:17.408Z,17.79
2022-08-26T20:44:19.678Z,17.77
2022-08-26T20:48:21.458Z,17.76
2022-08-26T20:52:23.139Z,17.78
2022-08-26T20:56:25.513Z,17.76
2022-08-26T21:00:28.098Z,17.74
2022-08-26T21:04:30.568Z,17.72
2022-08-26T21:08:33.285Z,17.73
2022-08-26T21:12:35.564Z,17.73
2022-08-26T21:16:39.006Z,17.71
2022-08-26T21:20:40.722Z,17.69
2022-08-26T21:24:42.332Z,17.67
2022-08-26T21:28:44.543Z,17.65
2022-08-26T21:32:46.206Z,17.64
2022-08-26T21:36:48.654Z,17.63
2022-08-26T21:41:01.193Z,17.61
2022-08-26T21:45:03.538Z,17.60
2022-08-26T21:49:08.093Z,17.57
2022-08-26T21:53:10.570Z,17.55
2022-08-26T21:57:12.319Z,17.56
2022-08-26T22:01:17.259Z,17.53
2022-08-26T22:05:19.036Z,17.52
2022-08-26T22:09:23.707Z,17.50
2022-08-26T22:13:29.413Z,17.49
2022-08-26T22:17:31.141Z,17.47
2022-08-26T22:21:33.996Z,17.44
2022-08-26T22:25:35.869Z,17.44
2022-08-26T22:29:37.886Z,17.42
2022-08-26T22:33:42.343Z,17.40
2022-08-26T22:37:43.986Z,17.39
2022-08-26T22:41:48.553Z,17.36
2022-08-26T22:45:50.998Z,17.32
2022-08-26T22:49:52.725Z,17.29
2022-08-26T22:53:54.398Z,17.26
2022-08-26T22:57:56.024Z,17.24
2022-08-26T23:01:57.667Z,17.21
2022-08-26T23:06:00.188Z,17.19
2022-08-26T23:10:04.041Z,17.15
2022-08-26T23:14:06.646Z,17.15
2022-08-26T23:18:10.091Z,17.14
2022-08-26T23:22:11.937Z,17.12
2022-08-26T23:26:17.495Z,17.06
2022-08-26T23:30:23.265Z,17.00
2022-08-26T23:34:43.721Z,16.96
2022-08-26T23:38:52.590Z,16.93
2022-08-26T23:42:56.855Z,16.91
2022-08-26T23:46:58.765Z,16.89
2022-08-26T23:51:19.036Z,16.86
2022-08-26T23:55:20.984Z,16.83
2022-08-26T23:59:22.559Z,16.81
